FDA211 RJAF-RJCC
Flight info
| Callsign | FDA211 |
|---|---|
| Flight time | 1h 7m |
| Altitude | 33000 |
| Route | HAPPO V57 HAKBA Y45 GTC Y312 UWE Y32 MRE Y13 SIRAO Y139 NAVER |
| Aircraft | E75L/M-SDFGILORVWY/H |
Departure
| Time | 2026-04-14 13:13 |
|---|---|
| Airport | Shinshu-Matsumoto Airport (RJAF) |
Arrival
| Time | 2026-04-14 14:20 |
|---|---|
| Airport | New Chitose Airport (RJCC) |
| Time | Latitude | Longitude | Altitude | Speed | Heading |
|---|---|---|---|---|---|
| 2026-04-14 13:05 | 36.16441 | 137.92567 | 2187 ft | 0 kts | 80° |
| 2026-04-14 13:07 | 36.16440 | 137.92566 | 2187 ft | 2 kts | 80° |
| 2026-04-14 13:07 | 36.16434 | 137.92537 | 2184 ft | 4 kts | 64° |
| 2026-04-14 13:07 | 36.16417 | 137.92512 | 2178 ft | 4 kts | 25° |
| 2026-04-14 13:08 | 36.16402 | 137.92509 | 2185 ft | 1 kts | 351° |
| 2026-04-14 13:09 | 36.16403 | 137.92509 | 2185 ft | 1 kts | 351° |
| 2026-04-14 13:09 | 36.16426 | 137.92489 | 2184 ft | 7 kts | 295° |
| 2026-04-14 13:09 | 36.16422 | 137.92415 | 2183 ft | 11 kts | 261° |
| 2026-04-14 13:10 | 36.16395 | 137.92333 | 2189 ft | 10 kts | 209° |
| 2026-04-14 13:10 | 36.16309 | 137.92336 | 2193 ft | 15 kts | 171° |
| 2026-04-14 13:10 | 36.16186 | 137.92362 | 2198 ft | 21 kts | 171° |
| 2026-04-14 13:10 | 36.16033 | 137.92391 | 2201 ft | 23 kts | 171° |
| 2026-04-14 13:11 | 36.15880 | 137.92421 | 2210 ft | 22 kts | 171° |
| 2026-04-14 13:11 | 36.15784 | 137.92449 | 2210 ft | 12 kts | 147° |
| 2026-04-14 13:11 | 36.15742 | 137.92453 | 2211 ft | 2 kts | 242° |
| 2026-04-14 13:11 | 36.15758 | 137.92428 | 2210 ft | 6 kts | 353° |
| 2026-04-14 13:12 | 36.15813 | 137.92434 | 2210 ft | 11 kts | 352° |
| 2026-04-14 13:12 | 36.16068 | 137.92385 | 2202 ft | 74 kts | 351° |
| 2026-04-14 13:12 | 36.16823 | 137.92238 | 2179 ft | 143 kts | 351° |
| 2026-04-14 13:12 | 36.17930 | 137.92030 | 2574 ft | 169 kts | 351° |
| 2026-04-14 13:13 | 36.19195 | 137.91834 | 3171 ft | 197 kts | 358° |
| 2026-04-14 13:13 | 36.20641 | 137.91814 | 3997 ft | 217 kts | 0° |
| 2026-04-14 13:13 | 36.22184 | 137.91789 | 5055 ft | 225 kts | 0° |
| 2026-04-14 13:13 | 36.23824 | 137.91750 | 5848 ft | 247 kts | 360° |
| 2026-04-14 13:14 | 36.25611 | 137.91699 | 6626 ft | 266 kts | 359° |
| 2026-04-14 13:14 | 36.27519 | 137.91642 | 7450 ft | 280 kts | 359° |
| 2026-04-14 13:14 | 36.29494 | 137.91581 | 8356 ft | 287 kts | 359° |
| 2026-04-14 13:14 | 36.31508 | 137.91518 | 9297 ft | 291 kts | 358° |
| 2026-04-14 13:15 | 36.33550 | 137.91452 | 10212 ft | 298 kts | 358° |
| 2026-04-14 13:15 | 36.35658 | 137.91386 | 10761 ft | 314 kts | 358° |
| 2026-04-14 13:15 | 36.37880 | 137.91314 | 11486 ft | 324 kts | 358° |
| 2026-04-14 13:15 | 36.40154 | 137.91243 | 12395 ft | 328 kts | 358° |
| 2026-04-14 13:16 | 36.42467 | 137.91166 | 13310 ft | 336 kts | 358° |
| 2026-04-14 13:16 | 36.44835 | 137.91089 | 14200 ft | 344 kts | 358° |
| 2026-04-14 13:16 | 36.47245 | 137.91013 | 15115 ft | 349 kts | 357° |
| 2026-04-14 13:16 | 36.49692 | 137.90929 | 16016 ft | 355 kts | 356° |
| 2026-04-14 13:17 | 36.52178 | 137.90855 | 16887 ft | 359 kts | 356° |
| 2026-04-14 13:17 | 36.54693 | 137.90768 | 17766 ft | 365 kts | 355° |
| 2026-04-14 13:17 | 36.57255 | 137.90682 | 18589 ft | 369 kts | 354° |
| 2026-04-14 13:17 | 36.59819 | 137.90599 | 19510 ft | 366 kts | 354° |
| 2026-04-14 13:18 | 36.62393 | 137.90519 | 20266 ft | 372 kts | 353° |
| 2026-04-14 13:18 | 36.64991 | 137.90433 | 21082 ft | 374 kts | 353° |
| 2026-04-14 13:18 | 36.67610 | 137.90353 | 21876 ft | 377 kts | 353° |
| 2026-04-14 13:18 | 36.70252 | 137.90269 | 22665 ft | 380 kts | 353° |
| 2026-04-14 13:19 | 36.72868 | 137.90187 | 23402 ft | 382 kts | 352° |
| 2026-04-14 13:19 | 36.75573 | 137.90103 | 24042 ft | 386 kts | 352° |
| 2026-04-14 13:19 | 36.78234 | 137.90017 | 24574 ft | 389 kts | 352° |
| 2026-04-14 13:19 | 36.80960 | 137.89937 | 25113 ft | 393 kts | 351° |
| 2026-04-14 13:20 | 36.83703 | 137.89847 | 25726 ft | 395 kts | 351° |
| 2026-04-14 13:20 | 36.86457 | 137.89751 | 26252 ft | 398 kts | 350° |
| 2026-04-14 13:20 | 36.89236 | 137.89658 | 26828 ft | 401 kts | 350° |
| 2026-04-14 13:20 | 36.92039 | 137.89577 | 27371 ft | 404 kts | 351° |
| 2026-04-14 13:21 | 36.94888 | 137.89914 | 27808 ft | 423 kts | 7° |
| 2026-04-14 13:21 | 36.97664 | 137.91371 | 28311 ft | 440 kts | 20° |
| 2026-04-14 13:21 | 37.00357 | 137.93236 | 28801 ft | 445 kts | 21° |
| 2026-04-14 13:21 | 37.03074 | 137.95130 | 29212 ft | 449 kts | 21° |
| 2026-04-14 13:22 | 37.05817 | 137.97035 | 29647 ft | 454 kts | 21° |
| 2026-04-14 13:22 | 37.08565 | 137.98948 | 30049 ft | 457 kts | 20° |
| 2026-04-14 13:22 | 37.11354 | 138.00880 | 30430 ft | 460 kts | 20° |
| 2026-04-14 13:22 | 37.14167 | 138.02829 | 30811 ft | 462 kts | 20° |
| 2026-04-14 13:23 | 37.16988 | 138.04785 | 31178 ft | 465 kts | 20° |
| 2026-04-14 13:23 | 37.19824 | 138.06754 | 31544 ft | 467 kts | 20° |
| 2026-04-14 13:23 | 37.22671 | 138.08734 | 31888 ft | 470 kts | 20° |
| 2026-04-14 13:23 | 37.25537 | 138.10734 | 32213 ft | 472 kts | 20° |
| 2026-04-14 13:24 | 37.28419 | 138.12745 | 32613 ft | 472 kts | 20° |
| 2026-04-14 13:24 | 37.34163 | 138.16750 | 33141 ft | 478 kts | 20° |
| 2026-04-14 13:24 | 37.37052 | 138.18792 | 33156 ft | 486 kts | 21° |
| 2026-04-14 13:25 | 37.42999 | 138.23013 | 33152 ft | 492 kts | 21° |
| 2026-04-14 13:26 | 37.54993 | 138.31537 | 33099 ft | 495 kts | 21° |
| 2026-04-14 13:26 | 37.61005 | 138.35819 | 33107 ft | 496 kts | 21° |
| 2026-04-14 13:27 | 37.67012 | 138.40112 | 33054 ft | 495 kts | 21° |
| 2026-04-14 13:27 | 37.72977 | 138.44375 | 33056 ft | 496 kts | 21° |
| 2026-04-14 13:28 | 37.78981 | 138.48676 | 33054 ft | 495 kts | 21° |
| 2026-04-14 13:28 | 37.84975 | 138.52976 | 33054 ft | 495 kts | 21° |
| 2026-04-14 13:29 | 37.90957 | 138.57276 | 33058 ft | 495 kts | 21° |
| 2026-04-14 13:29 | 37.96948 | 138.61590 | 33057 ft | 495 kts | 21° |
| 2026-04-14 13:30 | 38.02914 | 138.65896 | 33075 ft | 492 kts | 21° |
| 2026-04-14 13:30 | 38.08859 | 138.70194 | 33058 ft | 491 kts | 21° |
| 2026-04-14 13:31 | 38.14802 | 138.74496 | 33061 ft | 491 kts | 21° |
| 2026-04-14 13:31 | 38.20699 | 138.78773 | 33058 ft | 491 kts | 21° |
| 2026-04-14 13:32 | 38.26632 | 138.83083 | 33060 ft | 491 kts | 21° |
| 2026-04-14 13:32 | 38.32566 | 138.87404 | 33045 ft | 492 kts | 21° |
| 2026-04-14 13:33 | 38.38506 | 138.91742 | 33058 ft | 492 kts | 21° |
| 2026-04-14 13:33 | 38.44446 | 138.96085 | 33058 ft | 492 kts | 21° |
| 2026-04-14 13:34 | 38.53335 | 139.02597 | 33058 ft | 493 kts | 21° |
| 2026-04-14 13:35 | 38.58279 | 139.06229 | 33055 ft | 493 kts | 22° |
| 2026-04-14 13:35 | 38.64233 | 139.10608 | 33054 ft | 493 kts | 21° |
| 2026-04-14 13:36 | 38.70188 | 139.14998 | 33053 ft | 493 kts | 22° |
| 2026-04-14 13:36 | 38.76139 | 139.19390 | 33055 ft | 493 kts | 21° |
| 2026-04-14 13:37 | 38.82086 | 139.23793 | 33057 ft | 493 kts | 22° |
| 2026-04-14 13:37 | 38.88026 | 139.28194 | 33074 ft | 493 kts | 21° |
| 2026-04-14 13:38 | 38.93937 | 139.32584 | 33069 ft | 494 kts | 22° |
| 2026-04-14 13:38 | 38.99871 | 139.37009 | 33050 ft | 493 kts | 22° |
| 2026-04-14 13:39 | 39.05806 | 139.41432 | 33052 ft | 493 kts | 21° |
| 2026-04-14 13:39 | 39.11742 | 139.45859 | 33048 ft | 493 kts | 22° |
| 2026-04-14 13:40 | 39.17672 | 139.50305 | 33071 ft | 493 kts | 22° |
| 2026-04-14 13:40 | 39.23618 | 139.54768 | 33054 ft | 494 kts | 21° |
| 2026-04-14 13:41 | 39.29525 | 139.59196 | 33054 ft | 494 kts | 21° |
| 2026-04-14 13:41 | 39.35464 | 139.63666 | 33055 ft | 494 kts | 22° |
| 2026-04-14 13:42 | 39.41406 | 139.68148 | 33058 ft | 494 kts | 22° |
| 2026-04-14 13:42 | 39.47347 | 139.72641 | 33065 ft | 494 kts | 22° |
| 2026-04-14 13:43 | 39.53281 | 139.77140 | 33064 ft | 494 kts | 22° |
| 2026-04-14 13:43 | 39.59187 | 139.81619 | 33063 ft | 494 kts | 22° |
| 2026-04-14 13:44 | 39.65145 | 139.86142 | 33061 ft | 494 kts | 21° |
| 2026-04-14 13:44 | 39.71080 | 139.90663 | 33057 ft | 495 kts | 22° |
| 2026-04-14 13:45 | 39.76989 | 139.95157 | 33084 ft | 495 kts | 22° |
| 2026-04-14 13:45 | 39.82935 | 139.99721 | 33057 ft | 496 kts | 22° |
| 2026-04-14 13:46 | 39.88882 | 140.04283 | 33062 ft | 496 kts | 22° |
| 2026-04-14 13:46 | 39.94840 | 140.08848 | 33060 ft | 497 kts | 21° |
| 2026-04-14 13:47 | 40.00791 | 140.13422 | 33074 ft | 496 kts | 22° |
| 2026-04-14 13:47 | 40.06708 | 140.17985 | 33092 ft | 497 kts | 22° |
| 2026-04-14 13:48 | 40.12690 | 140.22613 | 33075 ft | 498 kts | 21° |
| 2026-04-14 13:48 | 40.18658 | 140.27222 | 33082 ft | 498 kts | 21° |
| 2026-04-14 13:49 | 40.24624 | 140.31856 | 33076 ft | 499 kts | 22° |
| 2026-04-14 13:49 | 40.30598 | 140.36488 | 33085 ft | 497 kts | 21° |
| 2026-04-14 13:50 | 40.36512 | 140.41091 | 33113 ft | 498 kts | 21° |
| 2026-04-14 13:50 | 40.39558 | 140.43175 | 32812 ft | 488 kts | 15° |
| 2026-04-14 13:50 | 40.42660 | 140.44887 | 32023 ft | 478 kts | 12° |
| 2026-04-14 13:50 | 40.45714 | 140.46536 | 31435 ft | 468 kts | 12° |
| 2026-04-14 13:51 | 40.48705 | 140.48164 | 30858 ft | 458 kts | 12° |
| 2026-04-14 13:51 | 40.51579 | 140.49745 | 30322 ft | 448 kts | 13° |
| 2026-04-14 13:51 | 40.54428 | 140.51316 | 29734 ft | 439 kts | 13° |
| 2026-04-14 13:51 | 40.57216 | 140.52852 | 29133 ft | 430 kts | 13° |
| 2026-04-14 13:52 | 40.59949 | 140.54360 | 28563 ft | 423 kts | 13° |
| 2026-04-14 13:52 | 40.62653 | 140.55853 | 28026 ft | 421 kts | 13° |
| 2026-04-14 13:52 | 40.65362 | 140.57350 | 27541 ft | 423 kts | 13° |
| 2026-04-14 13:52 | 40.68072 | 140.58853 | 27027 ft | 422 kts | 14° |
| 2026-04-14 13:53 | 40.70774 | 140.60355 | 26514 ft | 421 kts | 14° |
| 2026-04-14 13:53 | 40.73461 | 140.61852 | 26006 ft | 418 kts | 14° |
| 2026-04-14 13:53 | 40.76129 | 140.63339 | 25480 ft | 415 kts | 15° |
| 2026-04-14 13:53 | 40.78774 | 140.64816 | 25013 ft | 411 kts | 15° |
| 2026-04-14 13:54 | 40.81396 | 140.66283 | 24535 ft | 407 kts | 15° |
| 2026-04-14 13:54 | 40.83996 | 140.67736 | 24083 ft | 404 kts | 16° |
| 2026-04-14 13:54 | 40.86580 | 140.69182 | 23377 ft | 405 kts | 16° |
| 2026-04-14 13:54 | 40.89153 | 140.70624 | 22851 ft | 397 kts | 16° |
| 2026-04-14 13:55 | 40.91671 | 140.72040 | 22435 ft | 390 kts | 16° |
| 2026-04-14 13:55 | 40.94156 | 140.73437 | 22126 ft | 386 kts | 16° |
| 2026-04-14 13:55 | 40.96632 | 140.74828 | 21845 ft | 387 kts | 17° |
| 2026-04-14 13:55 | 40.99112 | 140.76223 | 21569 ft | 387 kts | 17° |
| 2026-04-14 13:56 | 41.01583 | 140.77616 | 21314 ft | 386 kts | 17° |
| 2026-04-14 13:56 | 41.04049 | 140.79007 | 21055 ft | 385 kts | 17° |
| 2026-04-14 13:56 | 41.06477 | 140.80378 | 20803 ft | 383 kts | 17° |
| 2026-04-14 13:56 | 41.08926 | 140.81762 | 20547 ft | 382 kts | 17° |
| 2026-04-14 13:57 | 41.11370 | 140.83146 | 20291 ft | 381 kts | 17° |
| 2026-04-14 13:57 | 41.13800 | 140.84522 | 20038 ft | 379 kts | 17° |
| 2026-04-14 13:57 | 41.16224 | 140.85895 | 19798 ft | 378 kts | 17° |
| 2026-04-14 13:57 | 41.18635 | 140.87262 | 19558 ft | 376 kts | 17° |
| 2026-04-14 13:58 | 41.21045 | 140.88630 | 19309 ft | 376 kts | 17° |
| 2026-04-14 13:58 | 41.23452 | 140.89976 | 19082 ft | 375 kts | 17° |
| 2026-04-14 13:58 | 41.25853 | 140.91327 | 18835 ft | 374 kts | 17° |
| 2026-04-14 13:58 | 41.28238 | 140.92675 | 18601 ft | 370 kts | 17° |
| 2026-04-14 13:59 | 41.30606 | 140.94031 | 18372 ft | 371 kts | 18° |
| 2026-04-14 13:59 | 41.32975 | 140.95398 | 18121 ft | 370 kts | 18° |
| 2026-04-14 13:59 | 41.35299 | 140.96732 | 17853 ft | 368 kts | 18° |
| 2026-04-14 13:59 | 41.37652 | 140.98093 | 17590 ft | 368 kts | 18° |
| 2026-04-14 14:00 | 41.39993 | 140.99435 | 17325 ft | 366 kts | 17° |
| 2026-04-14 14:00 | 41.42341 | 141.00752 | 17077 ft | 365 kts | 17° |
| 2026-04-14 14:00 | 41.44675 | 141.02089 | 16840 ft | 365 kts | 18° |
| 2026-04-14 14:00 | 41.46997 | 141.03436 | 16600 ft | 364 kts | 17° |
| 2026-04-14 14:01 | 41.49329 | 141.04773 | 16351 ft | 364 kts | 18° |
| 2026-04-14 14:01 | 41.51647 | 141.06107 | 16105 ft | 362 kts | 18° |
| 2026-04-14 14:01 | 41.53961 | 141.07438 | 15861 ft | 361 kts | 18° |
| 2026-04-14 14:01 | 41.56263 | 141.08763 | 15620 ft | 360 kts | 18° |
| 2026-04-14 14:02 | 41.58560 | 141.10085 | 15390 ft | 358 kts | 18° |
| 2026-04-14 14:02 | 41.60846 | 141.11402 | 15212 ft | 357 kts | 18° |
| 2026-04-14 14:02 | 41.63120 | 141.12716 | 15114 ft | 353 kts | 17° |
| 2026-04-14 14:02 | 41.65377 | 141.14016 | 15137 ft | 354 kts | 17° |
| 2026-04-14 14:03 | 41.67650 | 141.15327 | 15141 ft | 356 kts | 17° |
| 2026-04-14 14:03 | 41.69898 | 141.16625 | 15122 ft | 356 kts | 17° |
| 2026-04-14 14:03 | 41.72171 | 141.17940 | 15110 ft | 356 kts | 17° |
| 2026-04-14 14:03 | 41.74443 | 141.19255 | 15119 ft | 356 kts | 17° |
| 2026-04-14 14:04 | 41.76726 | 141.20576 | 15109 ft | 357 kts | 17° |
| 2026-04-14 14:04 | 41.79004 | 141.21896 | 15109 ft | 357 kts | 17° |
| 2026-04-14 14:04 | 41.81285 | 141.23220 | 15111 ft | 357 kts | 17° |
| 2026-04-14 14:04 | 41.83558 | 141.24544 | 15110 ft | 355 kts | 17° |
| 2026-04-14 14:05 | 41.85828 | 141.25875 | 15114 ft | 357 kts | 18° |
| 2026-04-14 14:05 | 41.88040 | 141.27445 | 15125 ft | 360 kts | 23° |
| 2026-04-14 14:05 | 41.90230 | 141.29079 | 15115 ft | 360 kts | 22° |
| 2026-04-14 14:05 | 41.92437 | 141.30704 | 14902 ft | 363 kts | 22° |
| 2026-04-14 14:06 | 41.94617 | 141.32304 | 14537 ft | 356 kts | 22° |
| 2026-04-14 14:06 | 41.96762 | 141.33877 | 14175 ft | 346 kts | 22° |
| 2026-04-14 14:06 | 41.98849 | 141.35404 | 13822 ft | 337 kts | 21° |
| 2026-04-14 14:06 | 42.00885 | 141.36888 | 13460 ft | 328 kts | 21° |
| 2026-04-14 14:07 | 42.02870 | 141.38334 | 13106 ft | 320 kts | 21° |
| 2026-04-14 14:07 | 42.04812 | 141.39748 | 12782 ft | 314 kts | 21° |
| 2026-04-14 14:07 | 42.06702 | 141.41121 | 12437 ft | 312 kts | 21° |
| 2026-04-14 14:07 | 42.08612 | 141.42510 | 12093 ft | 311 kts | 22° |
| 2026-04-14 14:08 | 42.10522 | 141.43899 | 11756 ft | 311 kts | 22° |
| 2026-04-14 14:08 | 42.12421 | 141.45282 | 11425 ft | 310 kts | 22° |
| 2026-04-14 14:08 | 42.14316 | 141.46663 | 11096 ft | 309 kts | 23° |
| 2026-04-14 14:08 | 42.16201 | 141.48038 | 10769 ft | 307 kts | 23° |
| 2026-04-14 14:09 | 42.18083 | 141.49411 | 10437 ft | 306 kts | 23° |
| 2026-04-14 14:09 | 42.19954 | 141.50777 | 10055 ft | 306 kts | 24° |
| 2026-04-14 14:09 | 42.21803 | 141.52130 | 9596 ft | 299 kts | 24° |
| 2026-04-14 14:09 | 42.23613 | 141.53455 | 9143 ft | 294 kts | 24° |
| 2026-04-14 14:10 | 42.25396 | 141.54759 | 8704 ft | 288 kts | 24° |
| 2026-04-14 14:10 | 42.27146 | 141.56039 | 8275 ft | 283 kts | 24° |
| 2026-04-14 14:10 | 42.28843 | 141.57282 | 7870 ft | 279 kts | 24° |
| 2026-04-14 14:10 | 42.30535 | 141.58521 | 7470 ft | 274 kts | 25° |
| 2026-04-14 14:11 | 42.32201 | 141.59741 | 7083 ft | 270 kts | 25° |
| 2026-04-14 14:11 | 42.33842 | 141.60944 | 6693 ft | 267 kts | 25° |
| 2026-04-14 14:11 | 42.35470 | 141.62138 | 6291 ft | 264 kts | 25° |
| 2026-04-14 14:11 | 42.37080 | 141.63318 | 5867 ft | 262 kts | 25° |
| 2026-04-14 14:12 | 42.38672 | 141.64487 | 5459 ft | 260 kts | 25° |
| 2026-04-14 14:12 | 42.40257 | 141.65650 | 5056 ft | 257 kts | 25° |
| 2026-04-14 14:12 | 42.41826 | 141.66802 | 4648 ft | 255 kts | 26° |
| 2026-04-14 14:12 | 42.43379 | 141.67942 | 4239 ft | 253 kts | 26° |
| 2026-04-14 14:13 | 42.44917 | 141.69073 | 3842 ft | 250 kts | 26° |
| 2026-04-14 14:13 | 42.46442 | 141.70195 | 3450 ft | 248 kts | 26° |
| 2026-04-14 14:13 | 42.47931 | 141.71291 | 3062 ft | 246 kts | 27° |
| 2026-04-14 14:13 | 42.49392 | 141.72368 | 3001 ft | 232 kts | 27° |
| 2026-04-14 14:14 | 42.50774 | 141.73385 | 3006 ft | 219 kts | 25° |
| 2026-04-14 14:14 | 42.52157 | 141.73956 | 3006 ft | 200 kts | 2° |
| 2026-04-14 14:14 | 42.53486 | 141.73824 | 3012 ft | 186 kts | 350° |
| 2026-04-14 14:14 | 42.54760 | 141.73564 | 3007 ft | 185 kts | 349° |
| 2026-04-14 14:15 | 42.56030 | 141.73313 | 3015 ft | 185 kts | 349° |
| 2026-04-14 14:15 | 42.57306 | 141.73059 | 3016 ft | 185 kts | 349° |
| 2026-04-14 14:15 | 42.58572 | 141.72767 | 3017 ft | 185 kts | 348° |
| 2026-04-14 14:15 | 42.59848 | 141.72521 | 3017 ft | 185 kts | 351° |
| 2026-04-14 14:16 | 42.61129 | 141.72296 | 3023 ft | 185 kts | 351° |
| 2026-04-14 14:16 | 42.62414 | 141.72072 | 2918 ft | 190 kts | 352° |
| 2026-04-14 14:16 | 42.63689 | 141.71863 | 2646 ft | 181 kts | 352° |
| 2026-04-14 14:17 | 42.65980 | 141.71445 | 2214 ft | 157 kts | 352° |
| 2026-04-14 14:17 | 42.67070 | 141.71253 | 1974 ft | 157 kts | 353° |
| 2026-04-14 14:17 | 42.68149 | 141.71062 | 1743 ft | 156 kts | 353° |
| 2026-04-14 14:17 | 42.69215 | 141.70876 | 1531 ft | 151 kts | 353° |
| 2026-04-14 14:18 | 42.70241 | 141.70707 | 1314 ft | 147 kts | 354° |
| 2026-04-14 14:18 | 42.71255 | 141.70526 | 1113 ft | 146 kts | 352° |
| 2026-04-14 14:18 | 42.72257 | 141.70340 | 891 ft | 142 kts | 352° |
| 2026-04-14 14:18 | 42.73199 | 141.70171 | 691 ft | 133 kts | 352° |
| 2026-04-14 14:19 | 42.74096 | 141.70020 | 525 ft | 128 kts | 352° |
| 2026-04-14 14:19 | 42.74975 | 141.69869 | 349 ft | 126 kts | 351° |
| 2026-04-14 14:19 | 42.75844 | 141.69709 | 169 ft | 127 kts | 352° |
| 2026-04-14 14:19 | 42.76733 | 141.69554 | 73 ft | 126 kts | 351° |
| 2026-04-14 14:20 | 42.77474 | 141.69423 | 66 ft | 74 kts | 353° |
| 2026-04-14 14:20 | 42.77819 | 141.69278 | 58 ft | 45 kts | 325° |
| 2026-04-14 14:20 | 42.77974 | 141.69118 | 64 ft | 14 kts | 322° |
| 2026-04-14 14:20 | 42.78007 | 141.69084 | 59 ft | 4 kts | 322° |
| 2026-04-14 14:21 | 42.78062 | 141.69026 | 62 ft | 15 kts | 322° |
| 2026-04-14 14:21 | 42.78148 | 141.68937 | 60 ft | 17 kts | 322° |
| 2026-04-14 14:21 | 42.78245 | 141.68836 | 65 ft | 18 kts | 322° |
| 2026-04-14 14:21 | 42.78354 | 141.68721 | 62 ft | 21 kts | 322° |
| 2026-04-14 14:22 | 42.78408 | 141.68601 | 62 ft | 14 kts | 268° |
| 2026-04-14 14:22 | 42.78429 | 141.68471 | 66 ft | 15 kts | 298° |
| 2026-04-14 14:22 | 42.78483 | 141.68358 | 62 ft | 12 kts | 284° |
| 2026-04-14 14:22 | 42.78469 | 141.68279 | 61 ft | 9 kts | 228° |
| 2026-04-14 14:23 | 42.78437 | 141.68232 | 60 ft | 10 kts | 230° |
| 2026-04-14 14:23 | 42.78462 | 141.68139 | 64 ft | 10 kts | 325° |
| 2026-04-14 14:23 | 42.78490 | 141.68113 | 65 ft | 1 kts | 323° |
| 2026-04-14 14:23 | 42.78497 | 141.68105 | 62 ft | 0 kts | 323° |